This is the latest recevied weather packets stored in our database for station/object K9ABJ. If no packets are shown the sender has not sent any weather packets the latest 10 day(s).
| Time | Temp. | Humidity | Pressure | Rain* | Wind** | Luminosity | Snow |
|---|---|---|---|---|---|---|---|
| 1787869956 | 29.44° C | 58% | 1015.2 hPa | 0 mm | - | 171 W/m² | - |
| 1787869656 | 28.89° C | 60% | 1015.2 hPa | 0 mm | - | 131 W/m² | - |
| 1787869350 | 28.89° C | 59% | 1014.9 hPa | 0 mm | - | 81 W/m² | - |
| 1787869050 | 30° C | 56% | 1015.2 hPa | 0 mm | - | 122 W/m² | - |
| 1787868748 | 28.33° C | 59% | 1015.4 hPa | 0 mm | - | 128 W/m² | - |
| 1787868447 | 28.33° C | 59% | 1015.3 hPa | 0 mm | - | 56 W/m² | - |
| 1787868147 | 29.44° C | 56% | 1015.1 hPa | 0 mm | - | 62 W/m² | - |
| 1787867842 | 30.56° C | 54% | 1015 hPa | 0 mm | - | 199 W/m² | - |
| 1787867537 | 29.44° C | 56% | 1015.2 hPa | 0 mm | - | 181 W/m² | - |
| 1787867232 | 29.44° C | 55% | 1015.2 hPa | 0 mm | - | 207 W/m² | - |
| 1787866928 | 30° C | 55% | 1015.1 hPa | 0 mm | - | 243 W/m² | - |
| 1787866623 | 30.56° C | 54% | 1015.3 hPa | 0 mm | - | 232 W/m² | - |
| 1787866321 | 30° C | 54% | 1015.1 hPa | 0 mm | - | 207 W/m² | - |
| 1787866016 | 30° C | 53% | 1015.3 hPa | 0 mm | - | 316 W/m² | - |
| 1787865712 | 32.22° C | 51% | 1015.3 hPa | 0 mm | - | 336 W/m² | - |
| 1787865412 | 30.56° C | 53% | 1015 hPa | 0 mm | - | 417 W/m² | - |
| 1787865107 | 30° C | 55% | 1015 hPa | 0 mm | - | 506 W/m² | - |
| 1787864803 | 31.11° C | 51% | 1015 hPa | 0 mm | - | 599 W/m² | - |
| 1787864502 | 30° C | 53% | 1015.4 hPa | 0 mm | - | 436 W/m² | - |
| 1787864197 | 31.11° C | 51% | 1015 hPa | 0 mm | - | 488 W/m² | - |
| 1787863891 | 31.11° C | 51% | 1015.2 hPa | 0 mm | - | 502 W/m² | - |
| 1787863590 | 30° C | 57% | 1015.3 hPa | 0 mm | - | 527 W/m² | - |
| 1787863284 | 29.44° C | 55% | 1015.3 hPa | 0 mm | - | 1008 W/m² | - |
| 1787862981 | 28.89° C | 54% | 1015.1 hPa | 0 mm | - | 113 W/m² | - |
| 1787862676 | 31.67° C | 51% | 1015.4 hPa | 0 mm | - | 316 W/m² | - |
* Rain latest hour (hover to see other rain measurements)
** Current wind speed in m/s (hover to see current wind gust speed)